CDT,Max TemperatureF,Mean TemperatureF,Min TemperatureF,Max Dew PointF,MeanDew PointF,Min DewpointF,Max Humidity, Mean Humidity, Min Humidity, Max Sea Level PressureIn, Mean Sea Level PressureIn, Min Sea Level PressureIn, Max VisibilityMiles, Mean VisibilityMiles, Min VisibilityMiles, Max Wind SpeedMPH, Mean Wind SpeedMPH, Max Gust SpeedMPH,PrecipitationIn, CloudCover, Events, WindDirDegrees
2013-3-1,48,39,30,28,28,27,87,69,46,30.32,30.26,30.22,10,10,10,10,3,17,0.00,2,,360
2013-3-2,51,38,26,28,24,19,86,60,33,30.43,30.33,30.22,10,10,10,8,3,,0.00,0,,353
2013-3-3,69,50,32,34,30,25,93,48,23,30.21,29.96,29.69,10,10,10,17,6,25,0.00,0,,185
2013-3-4,78,62,46,41,36,30,71,39,20,29.91,29.66,29.60,10,10,10,23,11,37,0.00,1,Rain,267
2013-3-5,51,45,39,36,21,12,66,41,22,30.39,30.28,29.92,10,10,7,22,12,38,0.00,1,,359
2013-3-6,55,42,30,25,20,10,69,44,17,30.47,30.34,30.19,10,10,10,8,3,,0.00,0,,77
2013-3-7,69,52,35,32,24,18,65,37,15,30.22,30.16,30.08,10,10,10,18,5,25,0.00,0,,173
2013-3-8,60,56,51,54,45,32,88,68,44,30.17,30.08,29.95,10,10,10,15,9,22,0.00,6,Rain,163
2013-3-9,64,58,53,61,55,52,100,91,77,29.95,29.79,29.65,10,7,1,15,9,20,0.54,8,Rain-Thunderstorm,171
2013-3-10,55,45,35,54,35,28,100,69,53,30.09,29.92,29.71,10,10,7,13,5,22,0.01,7,Rain-Thunderstorm,319
2013-3-11,57,44,30,32,24,12,93,56,19,30.10,30.05,29.99,10,10,10,9,2,,0.00,0,,320
2013-3-12,62,48,35,36,29,19,81,48,26,30.34,30.20,30.04,10,10,10,15,4,20,0.00,0,,55
2013-3-13,62,48,33,32,29,21,81,48,25,30.47,30.38,30.32,10,10,10,9,3,,0.00,0,,108
2013-3-14,77,60,42,43,37,32,70,46,24,30.33,30.24,30.15,10,10,10,13,3,21,0.00,0,,205
2013-3-15,80,66,51,46,42,37,72,45,23,30.15,29.99,29.84,10,10,10,17,6,24,0.00,0,,206
2013-3-16,80,70,59,54,47,37,68,48,30,29.83,29.76,29.68,10,10,10,14,9,22,0.00,0,,189
2013-3-17,64,54,44,52,42,37,87,68,58,29.82,29.75,29.67,10,10,7,14,5,18,0.00,5,,17
2013-3-18,64,53,42,41,38,32,93,63,30,30.04,29.87,29.65,10,10,7,15,5,23,0.00,1,,37
2013-3-19,60,50,39,36,32,23,87,50,25,30.18,30.08,29.99,10,10,10,16,4,22,0.00,0,,89
2013-3-20,60,50,39,34,28,21,70,43,23,30.34,30.21,30.05,10,10,10,10,5,,0.00,0,,55
2013-3-21,62,53,44,43,35,30,81,55,39,30.04,29.77,29.57,10,10,7,20,9,26,0.02,4,Rain-Thunderstorm,142
2013-3-22,48,44,39,41,38,36,87,79,66,29.89,29.79,29.62,10,10,4,16,11,24,0.00,8,,57
2013-3-23,48,45,41,45,42,37,100,90,81,29.87,29.79,29.67,10,6,3,13,6,20,0.08,8,Rain-Thunderstorm,56
2013-3-24,48,42,35,37,24,14,87,56,27,30.20,30.06,29.88,10,10,10,17,10,28,0.00,4,,346
2013-3-25,46,37,28,23,16,10,74,43,23,30.40,30.32,30.21,10,10,10,14,5,23,0.00,0,,352
2013-3-26,55,39,23,27,19,10,86,45,22,30.49,30.39,30.28,10,10,10,7,1,,0.00,0,,147
2013-3-27,68,52,37,37,30,23,65,42,25,30.28,30.18,30.07,10,10,10,20,9,31,0.00,0,,178
2013-3-28,69,58,46,54,47,37,87,65,49,30.20,30.13,30.07,10,10,10,16,8,23,0.00,4,,178
2013-3-29,73,66,59,57,54,52,82,68,47,30.15,30.10,30.04,10,10,10,14,8,20,0.01,6,Rain-Thunderstorm,178
2013-3-30,77,65,53,59,57,52,100,76,50,30.04,29.96,29.87,10,10,7,22,8,31,0.11,4,Rain-Thunderstorm,204
2013-3-31,69,60,51,59,49,37,94,65,31,30.02,29.95,29.82,10,10,4,18,4,34,0.48,1,Rain-Thunderstorm,42